sensor_id;sensor_type;location;lat;lon;timestamp;P1;durP1;ratioP1;P2;durP2;ratioP2
19205;SDS011;59358;52.134;5.596;2022-08-19T00:00:38;29.17;;;22.23;;
19205;SDS011;59358;52.134;5.596;2022-08-19T00:03:05;29.17;;;23.38;;
19205;SDS011;59358;52.134;5.596;2022-08-19T00:05:34;30.40;;;24.63;;
19205;SDS011;59358;52.134;5.596;2022-08-19T00:08:01;27.17;;;23.25;;
19205;SDS011;59358;52.134;5.596;2022-08-19T00:10:28;26.50;;;22.83;;
19205;SDS011;59358;52.134;5.596;2022-08-19T00:12:55;31.25;;;25.50;;
19205;SDS011;59358;52.134;5.596;2022-08-19T00:15:21;29.00;;;22.80;;
19205;SDS011;59358;52.134;5.596;2022-08-19T00:17:48;28.08;;;24.17;;
19205;SDS011;59358;52.134;5.596;2022-08-19T00:20:16;31.08;;;23.55;;
19205;SDS011;59358;52.134;5.596;2022-08-19T00:22:47;29.05;;;23.63;;
19205;SDS011;59358;52.134;5.596;2022-08-19T00:25:14;30.67;;;23.10;;
19205;SDS011;59358;52.134;5.596;2022-08-19T00:27:42;24.65;;;21.27;;
19205;SDS011;59358;52.134;5.596;2022-08-19T00:30:09;26.67;;;21.48;;
19205;SDS011;59358;52.134;5.596;2022-08-19T00:32:37;25.85;;;21.23;;
19205;SDS011;59358;52.134;5.596;2022-08-19T00:35:04;28.70;;;21.48;;
19205;SDS011;59358;52.134;5.596;2022-08-19T00:37:31;27.40;;;21.70;;
19205;SDS011;59358;52.134;5.596;2022-08-19T00:40:01;28.70;;;22.20;;
19205;SDS011;59358;52.134;5.596;2022-08-19T00:42:29;23.65;;;20.42;;
19205;SDS011;59358;52.134;5.596;2022-08-19T00:44:56;25.20;;;20.55;;
19205;SDS011;59358;52.134;5.596;2022-08-19T00:47:22;28.33;;;22.60;;
19205;SDS011;59358;52.134;5.596;2022-08-19T00:49:50;28.23;;;22.15;;
19205;SDS011;59358;52.134;5.596;2022-08-19T00:52:20;29.33;;;22.50;;
19205;SDS011;59358;52.134;5.596;2022-08-19T00:54:49;28.60;;;21.90;;
19205;SDS011;59358;52.134;5.596;2022-08-19T00:57:20;23.92;;;20.08;;
19205;SDS011;59358;52.134;5.596;2022-08-19T00:59:51;26.73;;;21.08;;
19205;SDS011;59358;52.134;5.596;2022-08-19T01:02:20;24.77;;;21.15;;
19205;SDS011;59358;52.134;5.596;2022-08-19T01:04:46;24.17;;;19.80;;
19205;SDS011;59358;52.134;5.596;2022-08-19T01:07:13;25.50;;;19.67;;
19205;SDS011;59358;52.134;5.596;2022-08-19T01:09:40;24.83;;;21.40;;
19205;SDS011;59358;52.134;5.596;2022-08-19T01:12:07;29.70;;;22.52;;
19205;SDS011;59358;52.134;5.596;2022-08-19T01:14:36;31.13;;;23.45;;
19205;SDS011;59358;52.134;5.596;2022-08-19T01:17:04;31.45;;;23.23;;
19205;SDS011;59358;52.134;5.596;2022-08-19T01:19:34;31.23;;;24.38;;
19205;SDS011;59358;52.134;5.596;2022-08-19T01:22:03;28.45;;;22.58;;
19205;SDS011;59358;52.134;5.596;2022-08-19T01:24:35;27.67;;;22.40;;
19205;SDS011;59358;52.134;5.596;2022-08-19T01:27:03;33.65;;;23.23;;
19205;SDS011;59358;52.134;5.596;2022-08-19T01:29:30;32.33;;;22.60;;
19205;SDS011;59358;52.134;5.596;2022-08-19T01:31:57;31.30;;;22.30;;
19205;SDS011;59358;52.134;5.596;2022-08-19T01:34:24;29.70;;;22.58;;
19205;SDS011;59358;52.134;5.596;2022-08-19T01:36:51;27.60;;;21.25;;
19205;SDS011;59358;52.134;5.596;2022-08-19T01:39:18;24.85;;;20.05;;
19205;SDS011;59358;52.134;5.596;2022-08-19T01:41:48;26.30;;;20.50;;
19205;SDS011;59358;52.134;5.596;2022-08-19T01:44:17;27.80;;;21.17;;
19205;SDS011;59358;52.134;5.596;2022-08-19T01:46:46;26.02;;;20.67;;
19205;SDS011;59358;52.134;5.596;2022-08-19T01:49:14;26.35;;;21.45;;
19205;SDS011;59358;52.134;5.596;2022-08-19T01:51:44;26.65;;;21.10;;
19205;SDS011;59358;52.134;5.596;2022-08-19T01:54:12;27.77;;;20.42;;
19205;SDS011;59358;52.134;5.596;2022-08-19T01:56:40;24.70;;;20.42;;
19205;SDS011;59358;52.134;5.596;2022-08-19T01:59:09;26.65;;;21.13;;
19205;SDS011;59358;52.134;5.596;2022-08-19T02:01:38;29.40;;;22.02;;
19205;SDS011;59358;52.134;5.596;2022-08-19T02:04:05;30.95;;;24.02;;
19205;SDS011;59358;52.134;5.596;2022-08-19T02:06:31;31.52;;;24.13;;
19205;SDS011;59358;52.134;5.596;2022-08-19T02:08:59;33.10;;;24.35;;
19205;SDS011;59358;52.134;5.596;2022-08-19T02:11:27;33.40;;;26.20;;
19205;SDS011;59358;52.134;5.596;2022-08-19T02:13:56;31.15;;;23.55;;
19205;SDS011;59358;52.134;5.596;2022-08-19T02:16:26;36.60;;;27.33;;
19205;SDS011;59358;52.134;5.596;2022-08-19T02:18:53;35.83;;;26.33;;
19205;SDS011;59358;52.134;5.596;2022-08-19T02:21:20;32.67;;;24.52;;
19205;SDS011;59358;52.134;5.596;2022-08-19T02:23:49;31.45;;;24.45;;
19205;SDS011;59358;52.134;5.596;2022-08-19T02:26:16;31.27;;;23.85;;
19205;SDS011;59358;52.134;5.596;2022-08-19T02:28:44;35.15;;;25.35;;
19205;SDS011;59358;52.134;5.596;2022-08-19T02:31:14;36.25;;;26.67;;
19205;SDS011;59358;52.134;5.596;2022-08-19T02:33:44;36.00;;;27.13;;
19205;SDS011;59358;52.134;5.596;2022-08-19T02:36:13;39.28;;;25.90;;
19205;SDS011;59358;52.134;5.596;2022-08-19T02:38:41;35.72;;;26.60;;
19205;SDS011;59358;52.134;5.596;2022-08-19T02:41:11;34.00;;;24.67;;
19205;SDS011;59358;52.134;5.596;2022-08-19T02:43:41;35.13;;;25.90;;
19205;SDS011;59358;52.134;5.596;2022-08-19T02:46:12;39.78;;;25.83;;
19205;SDS011;59358;52.134;5.596;2022-08-19T02:48:40;34.42;;;25.25;;
19205;SDS011;59358;52.134;5.596;2022-08-19T02:51:09;33.80;;;23.30;;
19205;SDS011;59358;52.134;5.596;2022-08-19T02:53:43;34.30;;;25.65;;
19205;SDS011;59358;52.134;5.596;2022-08-19T02:56:09;31.83;;;23.92;;
19205;SDS011;59358;52.134;5.596;2022-08-19T02:58:36;29.45;;;23.67;;
19205;SDS011;59358;52.134;5.596;2022-08-19T03:01:03;30.17;;;22.95;;
19205;SDS011;59358;52.134;5.596;2022-08-19T03:03:30;30.83;;;23.35;;
19205;SDS011;59358;52.134;5.596;2022-08-19T03:06:09;31.90;;;24.02;;
19205;SDS011;59358;52.134;5.596;2022-08-19T03:08:39;40.70;;;27.80;;
19205;SDS011;59358;52.134;5.596;2022-08-19T03:11:12;34.20;;;25.90;;
19205;SDS011;59358;52.134;5.596;2022-08-19T03:13:40;40.90;;;29.23;;
19205;SDS011;59358;52.134;5.596;2022-08-19T03:16:08;41.38;;;27.08;;
19205;SDS011;59358;52.134;5.596;2022-08-19T03:18:36;36.53;;;25.42;;
19205;SDS011;59358;52.134;5.596;2022-08-19T03:21:04;37.40;;;26.55;;
19205;SDS011;59358;52.134;5.596;2022-08-19T03:23:33;37.28;;;25.60;;
19205;SDS011;59358;52.134;5.596;2022-08-19T03:26:02;33.65;;;25.50;;
19205;SDS011;59358;52.134;5.596;2022-08-19T03:28:30;38.25;;;28.20;;
19205;SDS011;59358;52.134;5.596;2022-08-19T03:30:58;34.65;;;26.25;;
19205;SDS011;59358;52.134;5.596;2022-08-19T03:33:27;42.08;;;28.95;;
19205;SDS011;59358;52.134;5.596;2022-08-19T03:36:02;53.22;;;35.53;;
19205;SDS011;59358;52.134;5.596;2022-08-19T03:38:33;52.10;;;32.65;;
19205;SDS011;59358;52.134;5.596;2022-08-19T03:41:04;43.55;;;31.17;;
19205;SDS011;59358;52.134;5.596;2022-08-19T03:43:33;40.80;;;28.40;;
19205;SDS011;59358;52.134;5.596;2022-08-19T03:46:01;41.72;;;28.27;;
19205;SDS011;59358;52.134;5.596;2022-08-19T03:48:29;39.72;;;29.33;;
19205;SDS011;59358;52.134;5.596;2022-08-19T03:50:57;49.03;;;31.88;;
19205;SDS011;59358;52.134;5.596;2022-08-19T03:53:24;40.20;;;29.35;;
19205;SDS011;59358;52.134;5.596;2022-08-19T03:55:53;42.92;;;28.95;;
19205;SDS011;59358;52.134;5.596;2022-08-19T03:58:21;44.95;;;29.13;;
19205;SDS011;59358;52.134;5.596;2022-08-19T04:00:49;38.70;;;28.23;;
19205;SDS011;59358;52.134;5.596;2022-08-19T04:03:16;43.67;;;29.70;;
19205;SDS011;59358;52.134;5.596;2022-08-19T04:05:44;40.40;;;28.65;;
19205;SDS011;59358;52.134;5.596;2022-08-19T04:08:11;38.55;;;26.08;;
19205;SDS011;59358;52.134;5.596;2022-08-19T04:10:40;41.95;;;27.10;;
19205;SDS011;59358;52.134;5.596;2022-08-19T04:13:08;35.83;;;26.00;;
19205;SDS011;59358;52.134;5.596;2022-08-19T04:15:38;34.08;;;25.08;;
19205;SDS011;59358;52.134;5.596;2022-08-19T04:18:06;32.75;;;24.38;;
19205;SDS011;59358;52.134;5.596;2022-08-19T04:20:38;28.33;;;22.10;;
19205;SDS011;59358;52.134;5.596;2022-08-19T04:23:06;35.22;;;24.50;;
19205;SDS011;59358;52.134;5.596;2022-08-19T04:25:37;37.03;;;24.42;;
19205;SDS011;59358;52.134;5.596;2022-08-19T04:28:05;35.58;;;24.15;;
19205;SDS011;59358;52.134;5.596;2022-08-19T04:30:38;31.52;;;23.77;;
19205;SDS011;59358;52.134;5.596;2022-08-19T04:33:06;39.10;;;25.60;;
19205;SDS011;59358;52.134;5.596;2022-08-19T04:35:37;34.88;;;24.73;;
19205;SDS011;59358;52.134;5.596;2022-08-19T04:38:05;34.50;;;24.67;;
19205;SDS011;59358;52.134;5.596;2022-08-19T04:40:32;32.35;;;23.25;;
19205;SDS011;59358;52.134;5.596;2022-08-19T04:43:17;33.45;;;24.30;;
19205;SDS011;59358;52.134;5.596;2022-08-19T04:45:45;33.97;;;25.02;;
19205;SDS011;59358;52.134;5.596;2022-08-19T04:48:13;35.78;;;25.55;;
19205;SDS011;59358;52.134;5.596;2022-08-19T04:50:41;33.40;;;24.25;;
19205;SDS011;59358;52.134;5.596;2022-08-19T04:53:09;35.58;;;25.58;;
19205;SDS011;59358;52.134;5.596;2022-08-19T04:55:38;39.78;;;26.80;;
19205;SDS011;59358;52.134;5.596;2022-08-19T04:58:05;36.30;;;26.52;;
19205;SDS011;59358;52.134;5.596;2022-08-19T05:00:32;40.03;;;26.05;;
19205;SDS011;59358;52.134;5.596;2022-08-19T05:03:00;36.88;;;24.70;;
19205;SDS011;59358;52.134;5.596;2022-08-19T05:05:27;34.70;;;25.00;;
19205;SDS011;59358;52.134;5.596;2022-08-19T05:07:56;36.28;;;25.10;;
19205;SDS011;59358;52.134;5.596;2022-08-19T05:10:23;41.42;;;27.02;;
19205;SDS011;59358;52.134;5.596;2022-08-19T05:12:50;38.85;;;26.88;;
19205;SDS011;59358;52.134;5.596;2022-08-19T05:15:16;36.42;;;26.15;;
19205;SDS011;59358;52.134;5.596;2022-08-19T05:17:43;39.33;;;27.02;;
19205;SDS011;59358;52.134;5.596;2022-08-19T05:20:31;47.85;;;30.83;;
19205;SDS011;59358;52.134;5.596;2022-08-19T05:23:16;42.58;;;28.67;;
19205;SDS011;59358;52.134;5.596;2022-08-19T05:25:43;42.47;;;29.27;;
19205;SDS011;59358;52.134;5.596;2022-08-19T05:28:10;42.25;;;27.60;;
19205;SDS011;59358;52.134;5.596;2022-08-19T05:30:36;42.22;;;29.58;;
19205;SDS011;59358;52.134;5.596;2022-08-19T05:33:05;43.75;;;28.70;;
19205;SDS011;59358;52.134;5.596;2022-08-19T05:35:35;44.58;;;29.52;;
19205;SDS011;59358;52.134;5.596;2022-08-19T05:38:02;58.13;;;35.22;;
19205;SDS011;59358;52.134;5.596;2022-08-19T05:40:29;58.30;;;34.92;;
19205;SDS011;59358;52.134;5.596;2022-08-19T05:42:56;56.30;;;35.53;;
19205;SDS011;59358;52.134;5.596;2022-08-19T05:45:23;48.45;;;32.95;;
19205;SDS011;59358;52.134;5.596;2022-08-19T05:47:50;58.95;;;34.78;;
19205;SDS011;59358;52.134;5.596;2022-08-19T05:50:17;57.40;;;34.92;;
19205;SDS011;59358;52.134;5.596;2022-08-19T05:52:45;59.90;;;37.40;;
19205;SDS011;59358;52.134;5.596;2022-08-19T05:55:12;73.32;;;37.85;;
19205;SDS011;59358;52.134;5.596;2022-08-19T05:57:39;57.88;;;36.80;;
19205;SDS011;59358;52.134;5.596;2022-08-19T06:00:06;62.28;;;34.58;;
19205;SDS011;59358;52.134;5.596;2022-08-19T06:02:35;72.60;;;38.65;;
19205;SDS011;59358;52.134;5.596;2022-08-19T06:05:02;62.97;;;35.72;;
19205;SDS011;59358;52.134;5.596;2022-08-19T06:07:31;62.10;;;36.60;;
19205;SDS011;59358;52.134;5.596;2022-08-19T06:10:00;63.45;;;36.70;;
19205;SDS011;59358;52.134;5.596;2022-08-19T06:12:27;62.40;;;36.70;;
19205;SDS011;59358;52.134;5.596;2022-08-19T06:14:56;60.97;;;35.67;;
19205;SDS011;59358;52.134;5.596;2022-08-19T06:17:24;66.32;;;37.40;;
19205;SDS011;59358;52.134;5.596;2022-08-19T06:19:51;64.35;;;38.05;;
19205;SDS011;59358;52.134;5.596;2022-08-19T06:22:18;65.35;;;37.88;;
19205;SDS011;59358;52.134;5.596;2022-08-19T06:24:44;65.57;;;39.10;;
19205;SDS011;59358;52.134;5.596;2022-08-19T06:27:12;65.35;;;37.25;;
19205;SDS011;59358;52.134;5.596;2022-08-19T06:29:40;73.20;;;37.60;;
19205;SDS011;59358;52.134;5.596;2022-08-19T06:32:07;64.82;;;37.72;;
19205;SDS011;59358;52.134;5.596;2022-08-19T06:34:34;70.38;;;38.83;;
19205;SDS011;59358;52.134;5.596;2022-08-19T06:37:01;75.35;;;40.45;;
19205;SDS011;59358;52.134;5.596;2022-08-19T06:39:29;83.00;;;42.53;;
19205;SDS011;59358;52.134;5.596;2022-08-19T06:41:59;73.32;;;39.47;;
19205;SDS011;59358;52.134;5.596;2022-08-19T06:44:30;76.40;;;41.92;;
19205;SDS011;59358;52.134;5.596;2022-08-19T06:47:00;89.03;;;45.72;;
19205;SDS011;59358;52.134;5.596;2022-08-19T06:49:28;93.35;;;45.78;;
19205;SDS011;59358;52.134;5.596;2022-08-19T06:51:55;96.00;;;47.22;;
19205;SDS011;59358;52.134;5.596;2022-08-19T06:54:23;102.00;;;48.42;;
19205;SDS011;59358;52.134;5.596;2022-08-19T06:56:50;97.75;;;47.38;;
19205;SDS011;59358;52.134;5.596;2022-08-19T06:59:18;101.25;;;48.47;;
19205;SDS011;59358;52.134;5.596;2022-08-19T07:01:49;99.90;;;49.22;;
19205;SDS011;59358;52.134;5.596;2022-08-19T07:04:19;93.00;;;50.63;;
19205;SDS011;59358;52.134;5.596;2022-08-19T07:06:48;93.07;;;49.78;;
19205;SDS011;59358;52.134;5.596;2022-08-19T07:09:17;90.40;;;48.95;;
19205;SDS011;59358;52.134;5.596;2022-08-19T07:11:45;90.00;;;47.88;;
19205;SDS011;59358;52.134;5.596;2022-08-19T07:14:12;80.15;;;47.28;;
19205;SDS011;59358;52.134;5.596;2022-08-19T07:16:40;81.65;;;50.65;;
19205;SDS011;59358;52.134;5.596;2022-08-19T07:19:09;89.93;;;51.25;;
19205;SDS011;59358;52.134;5.596;2022-08-19T07:21:35;80.18;;;49.05;;
19205;SDS011;59358;52.134;5.596;2022-08-19T07:24:02;83.25;;;49.83;;
19205;SDS011;59358;52.134;5.596;2022-08-19T07:26:31;76.50;;;48.90;;
19205;SDS011;59358;52.134;5.596;2022-08-19T07:28:59;83.43;;;47.05;;
19205;SDS011;59358;52.134;5.596;2022-08-19T07:31:27;78.47;;;49.83;;
19205;SDS011;59358;52.134;5.596;2022-08-19T07:33:55;82.72;;;46.45;;
19205;SDS011;59358;52.134;5.596;2022-08-19T07:36:24;79.95;;;47.92;;
19205;SDS011;59358;52.134;5.596;2022-08-19T07:38:57;83.75;;;48.20;;
19205;SDS011;59358;52.134;5.596;2022-08-19T07:41:27;81.28;;;46.45;;
19205;SDS011;59358;52.134;5.596;2022-08-19T07:43:56;86.25;;;48.05;;
19205;SDS011;59358;52.134;5.596;2022-08-19T07:46:23;80.45;;;47.50;;
19205;SDS011;59358;52.134;5.596;2022-08-19T07:48:51;78.15;;;44.97;;
19205;SDS011;59358;52.134;5.596;2022-08-19T07:51:20;80.15;;;45.55;;
19205;SDS011;59358;52.134;5.596;2022-08-19T07:53:49;74.88;;;44.72;;
19205;SDS011;59358;52.134;5.596;2022-08-19T07:56:16;74.07;;;44.25;;
19205;SDS011;59358;52.134;5.596;2022-08-19T07:58:44;79.40;;;47.65;;
19205;SDS011;59358;52.134;5.596;2022-08-19T08:01:13;70.80;;;46.05;;
19205;SDS011;59358;52.134;5.596;2022-08-19T08:03:41;78.63;;;44.95;;
19205;SDS011;59358;52.134;5.596;2022-08-19T08:06:25;74.30;;;45.22;;
19205;SDS011;59358;52.134;5.596;2022-08-19T08:09:12;77.25;;;47.35;;
19205;SDS011;59358;52.134;5.596;2022-08-19T08:11:47;77.03;;;46.22;;
19205;SDS011;59358;52.134;5.596;2022-08-19T08:14:16;75.25;;;45.83;;
19205;SDS011;59358;52.134;5.596;2022-08-19T08:16:44;65.05;;;43.08;;
19205;SDS011;59358;52.134;5.596;2022-08-19T08:19:12;67.63;;;42.28;;
19205;SDS011;59358;52.134;5.596;2022-08-19T08:21:40;61.67;;;42.05;;
19205;SDS011;59358;52.134;5.596;2022-08-19T08:24:07;61.10;;;39.28;;
19205;SDS011;59358;52.134;5.596;2022-08-19T08:26:36;58.92;;;37.97;;
19205;SDS011;59358;52.134;5.596;2022-08-19T08:29:03;59.25;;;38.65;;
19205;SDS011;59358;52.134;5.596;2022-08-19T08:31:30;60.60;;;38.75;;
19205;SDS011;59358;52.134;5.596;2022-08-19T08:33:57;62.03;;;38.35;;
19205;SDS011;59358;52.134;5.596;2022-08-19T08:36:24;56.83;;;37.78;;
19205;SDS011;59358;52.134;5.596;2022-08-19T08:38:51;56.67;;;39.22;;
19205;SDS011;59358;52.134;5.596;2022-08-19T08:41:19;56.80;;;37.45;;
19205;SDS011;59358;52.134;5.596;2022-08-19T08:43:56;51.95;;;36.22;;
19205;SDS011;59358;52.134;5.596;2022-08-19T08:46:25;55.10;;;35.72;;
19205;SDS011;59358;52.134;5.596;2022-08-19T08:49:00;50.83;;;34.38;;
19205;SDS011;59358;52.134;5.596;2022-08-19T08:51:33;51.05;;;36.08;;
19205;SDS011;59358;52.134;5.596;2022-08-19T08:54:05;45.38;;;32.80;;
19205;SDS011;59358;52.134;5.596;2022-08-19T08:56:35;50.95;;;32.22;;
19205;SDS011;59358;52.134;5.596;2022-08-19T08:59:07;42.10;;;30.60;;
19205;SDS011;59358;52.134;5.596;2022-08-19T09:01:42;45.20;;;29.92;;
19205;SDS011;59358;52.134;5.596;2022-08-19T09:04:08;45.75;;;31.40;;
19205;SDS011;59358;52.134;5.596;2022-08-19T09:06:40;51.47;;;33.65;;
19205;SDS011;59358;52.134;5.596;2022-08-19T09:09:14;46.42;;;31.00;;
19205;SDS011;59358;52.134;5.596;2022-08-19T09:11:47;41.83;;;29.15;;
19205;SDS011;59358;52.134;5.596;2022-08-19T09:14:34;40.72;;;29.65;;
19205;SDS011;59358;52.134;5.596;2022-08-19T09:17:07;40.08;;;28.80;;
19205;SDS011;59358;52.134;5.596;2022-08-19T09:19:34;43.15;;;29.35;;
19205;SDS011;59358;52.134;5.596;2022-08-19T09:22:03;41.38;;;28.98;;
19205;SDS011;59358;52.134;5.596;2022-08-19T09:24:30;38.78;;;27.33;;
19205;SDS011;59358;52.134;5.596;2022-08-19T09:26:56;42.38;;;29.10;;
19205;SDS011;59358;52.134;5.596;2022-08-19T09:29:23;40.83;;;27.30;;
19205;SDS011;59358;52.134;5.596;2022-08-19T09:31:51;43.45;;;29.25;;
19205;SDS011;59358;52.134;5.596;2022-08-19T09:34:18;44.22;;;30.42;;
19205;SDS011;59358;52.134;5.596;2022-08-19T09:36:45;39.47;;;29.10;;
19205;SDS011;59358;52.134;5.596;2022-08-19T09:39:12;39.45;;;27.05;;
19205;SDS011;59358;52.134;5.596;2022-08-19T09:41:39;52.58;;;30.63;;
19205;SDS011;59358;52.134;5.596;2022-08-19T09:44:06;48.20;;;28.55;;
19205;SDS011;59358;52.134;5.596;2022-08-19T09:46:33;37.25;;;27.92;;
19205;SDS011;59358;52.134;5.596;2022-08-19T09:49:02;38.92;;;26.17;;
19205;SDS011;59358;52.134;5.596;2022-08-19T09:51:30;37.25;;;26.15;;
19205;SDS011;59358;52.134;5.596;2022-08-19T09:53:58;39.85;;;26.90;;
19205;SDS011;59358;52.134;5.596;2022-08-19T09:56:27;35.88;;;25.65;;
19205;SDS011;59358;52.134;5.596;2022-08-19T09:58:55;32.63;;;23.40;;
19205;SDS011;59358;52.134;5.596;2022-08-19T10:01:24;31.25;;;22.88;;
19205;SDS011;59358;52.134;5.596;2022-08-19T10:03:54;34.35;;;22.50;;
19205;SDS011;59358;52.134;5.596;2022-08-19T10:06:24;36.13;;;23.75;;
19205;SDS011;59358;52.134;5.596;2022-08-19T10:08:54;32.10;;;23.85;;
19205;SDS011;59358;52.134;5.596;2022-08-19T10:11:21;34.35;;;24.92;;
19205;SDS011;59358;52.134;5.596;2022-08-19T10:13:48;33.17;;;24.40;;
19205;SDS011;59358;52.134;5.596;2022-08-19T10:16:16;30.55;;;22.42;;
19205;SDS011;59358;52.134;5.596;2022-08-19T10:18:45;31.92;;;21.08;;
19205;SDS011;59358;52.134;5.596;2022-08-19T10:21:13;30.92;;;21.88;;
19205;SDS011;59358;52.134;5.596;2022-08-19T10:23:43;33.00;;;21.92;;
19205;SDS011;59358;52.134;5.596;2022-08-19T10:26:12;25.80;;;19.77;;
19205;SDS011;59358;52.134;5.596;2022-08-19T10:28:40;30.33;;;20.98;;
19205;SDS011;59358;52.134;5.596;2022-08-19T10:31:08;29.58;;;20.58;;
19205;SDS011;59358;52.134;5.596;2022-08-19T10:33:37;28.75;;;21.15;;
19205;SDS011;59358;52.134;5.596;2022-08-19T10:36:06;27.08;;;20.55;;
19205;SDS011;59358;52.134;5.596;2022-08-19T10:38:36;27.10;;;19.00;;
19205;SDS011;59358;52.134;5.596;2022-08-19T10:41:09;24.67;;;19.52;;
19205;SDS011;59358;52.134;5.596;2022-08-19T10:43:37;28.83;;;21.75;;
19205;SDS011;59358;52.134;5.596;2022-08-19T10:46:05;27.25;;;20.13;;
19205;SDS011;59358;52.134;5.596;2022-08-19T10:48:32;32.20;;;22.05;;
19205;SDS011;59358;52.134;5.596;2022-08-19T10:51:03;28.08;;;19.88;;
19205;SDS011;59358;52.134;5.596;2022-08-19T10:53:48;24.23;;;18.80;;
19205;SDS011;59358;52.134;5.596;2022-08-19T10:56:16;25.23;;;19.52;;
19205;SDS011;59358;52.134;5.596;2022-08-19T10:59:01;29.10;;;21.25;;
19205;SDS011;59358;52.134;5.596;2022-08-19T11:01:29;26.42;;;19.52;;
19205;SDS011;59358;52.134;5.596;2022-08-19T11:03:58;27.77;;;19.08;;
19205;SDS011;59358;52.134;5.596;2022-08-19T11:06:25;24.23;;;19.80;;
19205;SDS011;59358;52.134;5.596;2022-08-19T11:08:53;26.63;;;20.90;;
19205;SDS011;59358;52.134;5.596;2022-08-19T11:11:21;28.95;;;22.88;;
19205;SDS011;59358;52.134;5.596;2022-08-19T11:13:49;31.48;;;21.95;;
19205;SDS011;59358;52.134;5.596;2022-08-19T11:16:16;31.05;;;22.13;;
19205;SDS011;59358;52.134;5.596;2022-08-19T11:18:47;28.13;;;23.10;;
19205;SDS011;59358;52.134;5.596;2022-08-19T11:21:16;27.40;;;22.90;;
19205;SDS011;59358;52.134;5.596;2022-08-19T11:23:46;27.23;;;21.60;;
19205;SDS011;59358;52.134;5.596;2022-08-19T11:26:14;31.17;;;23.80;;
19205;SDS011;59358;52.134;5.596;2022-08-19T11:28:43;30.38;;;22.70;;
19205;SDS011;59358;52.134;5.596;2022-08-19T11:31:11;33.50;;;27.60;;
19205;SDS011;59358;52.134;5.596;2022-08-19T11:33:38;32.00;;;26.05;;
19205;SDS011;59358;52.134;5.596;2022-08-19T11:36:06;32.63;;;27.83;;
19205;SDS011;59358;52.134;5.596;2022-08-19T11:38:33;35.13;;;25.73;;
19205;SDS011;59358;52.134;5.596;2022-08-19T11:41:02;39.53;;;28.27;;
19205;SDS011;59358;52.134;5.596;2022-08-19T11:43:32;33.10;;;26.08;;
19205;SDS011;59358;52.134;5.596;2022-08-19T11:46:02;36.38;;;26.33;;
19205;SDS011;59358;52.134;5.596;2022-08-19T11:48:31;37.63;;;29.42;;
19205;SDS011;59358;52.134;5.596;2022-08-19T11:50:58;34.08;;;26.48;;
19205;SDS011;59358;52.134;5.596;2022-08-19T11:53:25;32.60;;;25.65;;
19205;SDS011;59358;52.134;5.596;2022-08-19T11:55:52;32.20;;;26.83;;
19205;SDS011;59358;52.134;5.596;2022-08-19T11:58:23;31.77;;;27.55;;
19205;SDS011;59358;52.134;5.596;2022-08-19T12:00:50;36.70;;;28.88;;
19205;SDS011;59358;52.134;5.596;2022-08-19T12:03:18;41.30;;;29.83;;
19205;SDS011;59358;52.134;5.596;2022-08-19T12:05:45;40.80;;;31.83;;
19205;SDS011;59358;52.134;5.596;2022-08-19T12:08:14;35.50;;;28.88;;
19205;SDS011;59358;52.134;5.596;2022-08-19T12:10:42;42.05;;;33.10;;
19205;SDS011;59358;52.134;5.596;2022-08-19T12:13:10;43.50;;;32.97;;
19205;SDS011;59358;52.134;5.596;2022-08-19T12:15:40;42.45;;;32.67;;
19205;SDS011;59358;52.134;5.596;2022-08-19T12:18:07;39.70;;;28.83;;
19205;SDS011;59358;52.134;5.596;2022-08-19T12:20:37;35.55;;;29.05;;
19205;SDS011;59358;52.134;5.596;2022-08-19T12:23:06;35.70;;;28.55;;
19205;SDS011;59358;52.134;5.596;2022-08-19T12:25:34;33.97;;;26.75;;
19205;SDS011;59358;52.134;5.596;2022-08-19T12:28:02;42.13;;;32.00;;
19205;SDS011;59358;52.134;5.596;2022-08-19T12:30:29;39.60;;;31.75;;
19205;SDS011;59358;52.134;5.596;2022-08-19T12:32:56;37.92;;;29.92;;
19205;SDS011;59358;52.134;5.596;2022-08-19T12:35:22;39.60;;;30.70;;
19205;SDS011;59358;52.134;5.596;2022-08-19T12:37:50;39.17;;;30.17;;
19205;SDS011;59358;52.134;5.596;2022-08-19T12:40:17;43.30;;;31.08;;
19205;SDS011;59358;52.134;5.596;2022-08-19T12:42:44;42.97;;;31.20;;
19205;SDS011;59358;52.134;5.596;2022-08-19T12:45:12;39.88;;;29.73;;
19205;SDS011;59358;52.134;5.596;2022-08-19T12:47:39;39.45;;;29.23;;
19205;SDS011;59358;52.134;5.596;2022-08-19T12:50:07;40.33;;;32.15;;
19205;SDS011;59358;52.134;5.596;2022-08-19T12:52:34;36.17;;;28.08;;
19205;SDS011;59358;52.134;5.596;2022-08-19T12:55:04;39.13;;;29.33;;
19205;SDS011;59358;52.134;5.596;2022-08-19T12:57:33;38.90;;;30.05;;
19205;SDS011;59358;52.134;5.596;2022-08-19T13:00:03;49.42;;;31.60;;
19205;SDS011;59358;52.134;5.596;2022-08-19T13:02:33;47.53;;;35.40;;
19205;SDS011;59358;52.134;5.596;2022-08-19T13:05:01;47.60;;;38.20;;
19205;SDS011;59358;52.134;5.596;2022-08-19T13:07:28;59.42;;;40.80;;
19205;SDS011;59358;52.134;5.596;2022-08-19T13:09:55;55.25;;;39.97;;
19205;SDS011;59358;52.134;5.596;2022-08-19T13:12:23;59.75;;;42.75;;
19205;SDS011;59358;52.134;5.596;2022-08-19T13:14:51;64.78;;;46.67;;
19205;SDS011;59358;52.134;5.596;2022-08-19T13:17:18;64.40;;;47.58;;
19205;SDS011;59358;52.134;5.596;2022-08-19T13:19:45;58.58;;;42.35;;
19205;SDS011;59358;52.134;5.596;2022-08-19T13:22:12;53.28;;;41.33;;
19205;SDS011;59358;52.134;5.596;2022-08-19T13:24:39;52.40;;;41.00;;
19205;SDS011;59358;52.134;5.596;2022-08-19T13:27:06;46.88;;;36.53;;
19205;SDS011;59358;52.134;5.596;2022-08-19T13:29:34;43.22;;;35.50;;
19205;SDS011;59358;52.134;5.596;2022-08-19T13:32:19;55.08;;;36.17;;
19205;SDS011;59358;52.134;5.596;2022-08-19T13:35:04;41.92;;;34.85;;
19205;SDS011;59358;52.134;5.596;2022-08-19T13:37:31;48.80;;;36.83;;
19205;SDS011;59358;52.134;5.596;2022-08-19T13:40:07;44.75;;;37.08;;
19205;SDS011;59358;52.134;5.596;2022-08-19T13:42:36;44.70;;;34.67;;
19205;SDS011;59358;52.134;5.596;2022-08-19T13:45:05;52.58;;;38.03;;
19205;SDS011;59358;52.134;5.596;2022-08-19T13:47:33;51.47;;;37.53;;
19205;SDS011;59358;52.134;5.596;2022-08-19T13:50:04;60.45;;;43.80;;
19205;SDS011;59358;52.134;5.596;2022-08-19T13:52:32;55.30;;;43.00;;
19205;SDS011;59358;52.134;5.596;2022-08-19T13:54:58;56.72;;;41.92;;
19205;SDS011;59358;52.134;5.596;2022-08-19T13:57:25;59.25;;;43.47;;
19205;SDS011;59358;52.134;5.596;2022-08-19T13:59:52;60.85;;;45.15;;
19205;SDS011;59358;52.134;5.596;2022-08-19T14:02:20;81.13;;;50.80;;
19205;SDS011;59358;52.134;5.596;2022-08-19T14:04:47;84.97;;;53.05;;
19205;SDS011;59358;52.134;5.596;2022-08-19T14:07:14;67.65;;;49.75;;
19205;SDS011;59358;52.134;5.596;2022-08-19T14:09:41;73.38;;;50.08;;
19205;SDS011;59358;52.134;5.596;2022-08-19T14:12:07;69.55;;;51.13;;
19205;SDS011;59358;52.134;5.596;2022-08-19T14:14:36;74.30;;;51.88;;
19205;SDS011;59358;52.134;5.596;2022-08-19T14:17:05;75.65;;;51.95;;
19205;SDS011;59358;52.134;5.596;2022-08-19T14:19:33;69.18;;;51.03;;
19205;SDS011;59358;52.134;5.596;2022-08-19T14:22:00;72.13;;;50.53;;
19205;SDS011;59358;52.134;5.596;2022-08-19T14:24:27;77.30;;;52.28;;
19205;SDS011;59358;52.134;5.596;2022-08-19T14:26:54;71.05;;;51.03;;
19205;SDS011;59358;52.134;5.596;2022-08-19T14:29:21;71.07;;;51.38;;